KORF/ORF METAR and TAF weather

Enter ICAO airport designator
Station Type Date Time Source
KORF METAR 2020/12/06 00:51 UTC NOAA

KORF 060051Z 34007KT 10SM BKN060 09/M01 A2995 RMK AO2 SLP143 T00891006


Station Type Date Time Source
KORF Decoded METAR 2020/12/06 00:51 UTC NOAA

NORFOLK INTERNATIONAL AIRPORT , VA, United States (KORF) 36-54N 076-12W 14M
Dec 05, 2020 - 07:51 PM EST / 2020.12.06 0051 UTC
Wind: from the NNW (340 degrees) at 8 MPH (7 KT):0
Visibility: 10 mile(s):0
Sky conditions: mostly cloudy
Temperature: 48.0 F (8.9 C)
Dew Point: 30.9 F (-0.6 C)
Relative Humidity: 51%
Pressure (altimeter): 29.95 in. Hg (1014 hPa)
ob: KORF 060051Z 34007KT 10SM BKN060 09/M01 A2995 RMK AO2 SLP143 T00891006
cycle: 1

Station Type Date Time Source
KORF TAF 2020/12/05 21:58 UTC NOAA

TAF
AMD KORF 052056Z 0521/0618 32010KT P6SM BKN050
FM061700 29009KT P6SM SKC

Example: see airport list